Terminal Aerodrome Forecast
Issued by NWS

Home | Current Version | Previous Version | Text Only | Print | Product List | Glossary Off
Versions: 1 2 3 4 5 6 7 8 9 10 11 12 13 14 15 16 17 18

000
FTUS42 KMHX 201720
TAFISO
TAF
KISO 201720Z 2018/2118 02007KT P6SM SCT040
     FM210600 06005KT P6SM SCT015 OVC025
     FM211400 15010G17KT P6SM VCTS SCT025 BKN050CB
      AMD LTD TO CLD VIS AND WIND=

USA.gov is the U.S. government's official web portal to all federal, state and local government web resources and services.